createdAt,value
2022-11-09T00:01:34.119Z,15.40
2022-11-09T00:04:02.443Z,15.38
2022-11-09T00:06:29.493Z,15.38
2022-11-09T00:08:56.016Z,15.43
2022-11-09T00:11:22.937Z,15.43
2022-11-09T00:13:49.714Z,15.38
2022-11-09T00:16:22.389Z,15.32
2022-11-09T00:18:49.234Z,15.33
2022-11-09T00:21:23.965Z,15.28
2022-11-09T00:23:51.061Z,15.24
2022-11-09T00:26:19.181Z,15.21
2022-11-09T00:28:45.689Z,15.21
2022-11-09T00:31:15.250Z,15.24
2022-11-09T00:33:41.663Z,15.25
2022-11-09T00:36:11.452Z,15.25
2022-11-09T00:38:40.476Z,15.25
2022-11-09T00:41:09.057Z,15.25
2022-11-09T00:43:35.553Z,15.23
2022-11-09T00:46:03.030Z,15.18
2022-11-09T00:48:29.885Z,15.15
2022-11-09T00:50:57.112Z,15.11
2022-11-09T00:53:24.693Z,15.09
2022-11-09T00:55:58.859Z,15.09
2022-11-09T00:58:27.290Z,15.09
2022-11-09T01:00:54.705Z,15.08
2022-11-09T01:03:22.270Z,15.06
2022-11-09T01:05:49.201Z,15.06
2022-11-09T01:08:17.956Z,15.11
2022-11-09T01:10:47.814Z,15.16
2022-11-09T01:13:16.015Z,15.21
2022-11-09T01:15:46.001Z,15.23
2022-11-09T01:18:13.301Z,15.24
2022-11-09T01:20:44.549Z,15.21
2022-11-09T01:23:12.464Z,15.21
2022-11-09T01:25:39.342Z,15.23
2022-11-09T01:28:06.887Z,15.20
2022-11-09T01:30:37.017Z,15.17
2022-11-09T01:33:05.339Z,15.17
2022-11-09T01:35:34.478Z,15.15
2022-11-09T01:38:03.842Z,15.12
2022-11-09T01:40:32.215Z,15.13
2022-11-09T01:42:59.049Z,15.13
2022-11-09T01:45:29.157Z,15.07
2022-11-09T01:47:59.129Z,15.01
2022-11-09T01:50:55.148Z,14.97
2022-11-09T01:53:27.692Z,14.93
2022-11-09T01:55:59.138Z,14.93
2022-11-09T01:58:30.475Z,14.94
2022-11-09T02:00:59.623Z,14.97
2022-11-09T02:03:36.574Z,14.97
2022-11-09T02:06:06.590Z,14.94
2022-11-09T02:08:32.980Z,14.94
2022-11-09T02:11:16.050Z,14.96
2022-11-09T02:13:49.401Z,14.95
2022-11-09T02:16:18.471Z,14.95
2022-11-09T02:18:52.670Z,15.00
2022-11-09T02:21:20.832Z,15.00
2022-11-09T02:23:47.299Z,15.02
2022-11-09T02:26:22.078Z,15.07
2022-11-09T02:28:48.727Z,15.10
2022-11-09T02:31:16.602Z,15.14
2022-11-09T02:33:59.830Z,15.16
2022-11-09T02:36:26.242Z,15.15
2022-11-09T02:38:54.821Z,15.11
2022-11-09T02:41:23.935Z,15.11
2022-11-09T02:43:53.376Z,15.12
2022-11-09T02:46:25.055Z,15.09
2022-11-09T02:48:51.888Z,15.13
2022-11-09T02:51:18.387Z,15.12
2022-11-09T02:53:44.846Z,15.08
2022-11-09T02:56:11.272Z,15.06
2022-11-09T02:58:37.673Z,15.07
2022-11-09T05:24:11.827Z,14.92
2022-11-09T05:26:40.142Z,14.96
2022-11-09T05:29:09.812Z,14.97
2022-11-09T05:31:37.426Z,14.98
2022-11-09T05:34:04.848Z,15.04
2022-11-09T05:36:31.577Z,15.10
2022-11-09T05:38:58.506Z,15.12
2022-11-09T05:41:25.112Z,15.12
2022-11-09T05:43:51.518Z,15.10
2022-11-09T05:46:18.679Z,15.11
2022-11-09T05:48:45.841Z,15.10
2022-11-09T05:51:14.314Z,15.09
2022-11-09T05:53:46.068Z,15.09
2022-11-09T05:56:14.636Z,15.09
2022-11-09T05:58:44.003Z,15.05
2022-11-09T06:01:13.294Z,15.02
2022-11-09T06:03:40.766Z,15.02
2022-11-09T06:06:09.108Z,15.04
2022-11-09T06:08:35.862Z,15.05
2022-11-09T06:11:07.969Z,15.01
2022-11-09T06:13:34.529Z,15.01
2022-11-09T06:16:02.661Z,14.99
2022-11-09T06:18:30.793Z,14.97
2022-11-09T06:20:59.480Z,15.00
2022-11-09T06:23:26.611Z,15.02
2022-11-09T06:25:53.986Z,15.00
2022-11-09T06:28:20.724Z,15.00
2022-11-09T06:30:47.141Z,14.97
2022-11-09T06:33:13.665Z,14.94
2022-11-09T06:35:40.056Z,14.93
2022-11-09T06:38:06.477Z,14.94
2022-11-09T06:40:33.595Z,14.98
2022-11-09T06:43:00.756Z,14.98
2022-11-09T06:45:28.730Z,14.98
2022-11-09T06:47:59.383Z,14.97
2022-11-09T06:50:27.565Z,14.95
2022-11-09T06:53:02.687Z,14.96
2022-11-09T06:55:30.462Z,14.96
2022-11-09T06:57:58.305Z,14.96
2022-11-09T07:00:25.945Z,14.89
2022-11-09T07:02:52.403Z,14.86
2022-11-09T07:05:19.375Z,14.81
2022-11-09T07:07:45.779Z,14.81
2022-11-09T07:10:13.224Z,14.80
2022-11-09T07:12:39.577Z,14.75
2022-11-09T07:15:06.421Z,14.77
2022-11-09T07:17:34.130Z,14.77
2022-11-09T07:20:00.789Z,14.77
2022-11-09T07:22:28.279Z,14.79
2022-11-09T07:24:55.738Z,14.82
2022-11-09T07:27:27.564Z,14.85
2022-11-09T07:29:54.748Z,14.82
2022-11-09T07:32:27.363Z,14.83
2022-11-09T07:35:08.614Z,14.82
2022-11-09T07:37:35.350Z,14.83
2022-11-09T07:40:02.730Z,14.85
2022-11-09T07:42:29.108Z,14.81
2022-11-09T07:44:55.574Z,14.81
2022-11-09T07:47:21.915Z,14.85
2022-11-09T07:49:48.340Z,14.89
2022-11-09T07:52:14.691Z,14.91
2022-11-09T07:54:41.273Z,14.94
2022-11-09T07:57:07.946Z,14.97
2022-11-09T07:59:34.355Z,14.99
2022-11-09T08:02:00.767Z,15.02
2022-11-09T08:04:27.350Z,15.06
2022-11-09T08:06:54.115Z,15.09
2022-11-09T08:09:20.739Z,15.08
2022-11-09T08:11:47.100Z,15.11
2022-11-09T08:14:13.631Z,15.15
2022-11-09T08:16:40.051Z,15.20
2022-11-09T08:19:08.823Z,15.25
2022-11-09T08:21:38.725Z,15.24
2022-11-09T08:24:05.808Z,15.27
2022-11-09T08:26:32.771Z,15.30
2022-11-09T08:28:59.242Z,15.33
2022-11-09T08:31:25.804Z,15.37
2022-11-09T08:33:52.179Z,15.43
2022-11-09T08:36:19.066Z,15.48
2022-11-09T08:38:45.707Z,15.54
2022-11-09T08:41:14.201Z,15.65
2022-11-09T08:43:40.798Z,15.72
2022-11-09T08:46:07.367Z,15.74
2022-11-09T08:48:33.893Z,15.68
2022-11-09T08:51:00.639Z,15.62
2022-11-09T08:53:29.195Z,15.59
2022-11-09T08:55:55.854Z,15.58
2022-11-09T08:58:22.904Z,15.57
2022-11-09T09:00:49.552Z,15.60
2022-11-09T09:03:15.928Z,15.64
2022-11-09T09:05:42.426Z,15.63
2022-11-09T09:08:11.426Z,15.66
2022-11-09T09:10:38.055Z,15.71
2022-11-09T09:13:04.804Z,15.80
2022-11-09T09:15:31.351Z,15.86
2022-11-09T09:18:02.838Z,15.87
2022-11-09T09:20:29.290Z,15.87
2022-11-09T09:22:59.076Z,15.89
2022-11-09T09:25:26.464Z,15.96
2022-11-09T09:27:55.282Z,16.01
2022-11-09T09:30:21.649Z,16.08
2022-11-09T09:32:48.135Z,16.12
2022-11-09T09:35:14.548Z,16.26
2022-11-09T09:37:41.012Z,16.32
2022-11-09T09:40:07.998Z,16.37
2022-11-09T09:42:37.327Z,16.36
2022-11-09T09:45:09.775Z,16.40
2022-11-09T09:47:56.180Z,16.57
2022-11-09T09:50:27.876Z,16.56
2022-11-09T09:53:30.109Z,16.60
2022-11-09T09:56:03.792Z,16.65
2022-11-09T09:58:33.301Z,16.64
2022-11-09T10:01:13.886Z,16.77
2022-11-09T10:03:40.279Z,17.10
2022-11-09T10:06:37.763Z,17.76
2022-11-09T10:09:23.205Z,18.24
2022-11-09T10:12:01.266Z,18.37
2022-11-09T10:14:36.927Z,18.40
2022-11-09T10:17:14.369Z,18.73
2022-11-09T10:20:29.040Z,18.88
2022-11-09T10:23:20.589Z,18.99
2022-11-09T10:26:14.474Z,18.97
2022-11-09T10:29:09.580Z,18.84
2022-11-09T10:31:32.807Z,18.37
2022-11-09T10:34:08.043Z,18.10
2022-11-09T10:36:44.973Z,17.94
2022-11-09T10:39:14.840Z,18.06
2022-11-09T10:41:59.598Z,18.16
2022-11-09T10:44:44.593Z,18.00
2022-11-09T10:47:29.506Z,17.98
2022-11-09T10:50:32.337Z,17.99
2022-11-09T10:53:19.141Z,17.84
2022-11-09T10:56:03.998Z,17.85
2022-11-09T10:58:53.757Z,17.86
2022-11-09T11:01:39.052Z,18.01
2022-11-09T11:04:25.934Z,18.21
2022-11-09T11:07:21.145Z,18.40
2022-11-09T11:10:16.146Z,18.64
2022-11-09T11:13:01.055Z,18.91
2022-11-09T11:15:46.431Z,19.04
2022-11-09T11:18:35.985Z,19.05
2022-11-09T11:21:23.415Z,19.23
2022-11-09T11:24:16.479Z,18.76
2022-11-09T11:27:10.483Z,18.18
2022-11-09T11:29:58.973Z,17.78
2022-11-09T11:32:50.140Z,17.91
2022-11-09T11:35:49.534Z,17.97
2022-11-09T11:38:56.146Z,17.71
2022-11-09T11:42:11.091Z,17.80
2022-11-09T11:45:41.535Z,18.49
2022-11-09T11:49:01.991Z,18.31
2022-11-09T11:51:58.788Z,18.22
2022-11-09T11:55:14.457Z,18.48
2022-11-09T11:58:10.876Z,18.18
2022-11-09T12:01:13.271Z,17.88
2022-11-09T12:04:35.919Z,17.95
2022-11-09T12:07:26.841Z,17.61
2022-11-09T12:10:28.472Z,17.29
2022-11-09T12:13:25.843Z,17.44
2022-11-09T12:16:31.102Z,18.11
2022-11-09T12:19:46.570Z,18.17
2022-11-09T12:22:54.910Z,18.42
2022-11-09T12:25:56.037Z,18.20
2022-11-09T12:29:10.844Z,18.26
2022-11-09T12:32:19.435Z,18.24
2022-11-09T12:35:13.732Z,18.31
2022-11-09T12:38:08.214Z,18.32
2022-11-09T12:41:10.380Z,18.48
2022-11-09T12:44:17.098Z,18.49
2022-11-09T12:47:05.234Z,18.55
2022-11-09T12:49:50.994Z,18.59
2022-11-09T12:52:37.251Z,18.54
2022-11-09T12:55:35.564Z,18.55
2022-11-09T12:58:23.645Z,18.59
2022-11-09T13:01:33.384Z,18.55
2022-11-09T13:04:20.575Z,18.35
2022-11-09T13:07:14.627Z,18.24
2022-11-09T13:10:02.299Z,18.25
2022-11-09T13:12:47.582Z,18.26
2022-11-09T13:15:34.579Z,18.12
2022-11-09T13:18:47.301Z,18.06
2022-11-09T13:21:35.433Z,17.91
2022-11-09T13:24:34.090Z,17.99
2022-11-09T13:27:47.780Z,17.92
2022-11-09T13:30:39.932Z,17.72
2022-11-09T13:33:26.835Z,17.76
2022-11-09T13:36:15.950Z,17.71
2022-11-09T13:39:29.271Z,17.50
2022-11-09T13:42:27.559Z,17.35
2022-11-09T13:45:26.805Z,17.50
2022-11-09T13:48:36.573Z,17.60
2022-11-09T13:51:44.238Z,17.54
2022-11-09T13:54:37.473Z,17.52
2022-11-09T13:57:24.608Z,17.47
2022-11-09T14:00:25.260Z,17.34
2022-11-09T14:03:27.922Z,17.31
2022-11-09T14:06:13.585Z,17.44
2022-11-09T14:08:59.987Z,17.51
2022-11-09T14:12:18.919Z,17.50
2022-11-09T14:15:16.232Z,17.52
2022-11-09T14:18:20.095Z,17.60
2022-11-09T14:21:26.400Z,17.59
2022-11-09T14:24:19.099Z,17.47
2022-11-09T14:27:10.023Z,17.37
2022-11-09T14:29:59.099Z,17.34
2022-11-09T14:32:49.527Z,17.22
2022-11-09T14:35:36.276Z,17.09
2022-11-09T14:38:47.158Z,16.97
2022-11-09T14:41:32.965Z,17.01
2022-11-09T14:44:35.691Z,16.94
2022-11-09T14:47:29.558Z,16.76
2022-11-09T14:50:18.982Z,16.64
2022-11-09T14:53:05.655Z,16.55
2022-11-09T14:55:53.443Z,16.49
2022-11-09T14:58:41.836Z,16.48
2022-11-09T15:01:27.353Z,16.44
2022-11-09T15:04:26.921Z,16.44
2022-11-09T15:07:20.424Z,16.46
2022-11-09T15:10:17.690Z,16.46
2022-11-09T15:13:03.235Z,16.41
2022-11-09T15:15:53.878Z,16.44
2022-11-09T15:18:45.089Z,16.43
2022-11-09T15:21:37.993Z,16.42
2022-11-09T15:24:26.128Z,16.43
2022-11-09T15:27:35.543Z,16.38
2022-11-09T15:30:29.430Z,16.27
2022-11-09T15:33:17.654Z,16.19
2022-11-09T15:36:07.186Z,16.10
2022-11-09T15:39:02.760Z,16.09
2022-11-09T15:41:47.817Z,16.01
2022-11-09T15:44:33.346Z,15.96
2022-11-09T15:47:31.993Z,15.92
2022-11-09T15:50:20.116Z,15.92
2022-11-09T15:53:05.390Z,15.88
2022-11-09T15:55:50.883Z,15.85
2022-11-09T15:58:35.854Z,15.87
2022-11-09T16:01:20.974Z,15.86
2022-11-09T16:04:05.714Z,15.86
2022-11-09T16:06:50.750Z,15.86
2022-11-09T16:09:40.257Z,15.87
2022-11-09T16:12:25.679Z,15.82
2022-11-09T16:15:10.782Z,15.86
2022-11-09T16:17:55.771Z,15.84
2022-11-09T16:20:40.684Z,15.81
2022-11-09T16:23:25.907Z,15.80
2022-11-09T16:26:13.825Z,15.82
2022-11-09T16:28:59.481Z,15.80
2022-11-09T16:31:52.443Z,15.78
2022-11-09T16:34:37.727Z,15.77
2022-11-09T16:37:23.812Z,15.72
2022-11-09T16:40:13.161Z,15.74
2022-11-09T16:43:00.281Z,15.75
2022-11-09T16:45:48.609Z,15.76
2022-11-09T16:48:34.443Z,15.56
2022-11-09T16:51:19.561Z,14.79
2022-11-09T16:54:04.814Z,14.40
2022-11-09T16:56:49.710Z,14.17
2022-11-09T16:59:34.756Z,13.97
2022-11-09T17:02:19.862Z,13.94
2022-11-09T17:05:05.220Z,14.01
2022-11-09T17:07:50.093Z,14.10
2022-11-09T17:10:39.626Z,14.24
2022-11-09T17:13:24.717Z,14.35
2022-11-09T17:16:12.429Z,14.40
2022-11-09T17:18:58.236Z,14.37
2022-11-09T17:21:43.655Z,14.36
2022-11-09T17:24:28.883Z,14.35
2022-11-09T17:27:13.969Z,14.40
2022-11-09T17:29:58.809Z,14.45
2022-11-09T17:32:43.786Z,14.49
2022-11-09T17:35:29.259Z,14.55
2022-11-09T17:38:14.258Z,14.61
2022-11-09T17:41:07.918Z,14.64
2022-11-09T17:43:53.095Z,14.63
2022-11-09T17:46:38.071Z,14.69
2022-11-09T17:49:23.417Z,14.74
2022-11-09T17:52:08.407Z,14.78
2022-11-09T17:54:53.161Z,14.77
2022-11-09T17:57:37.935Z,14.82
2022-11-09T18:00:23.352Z,14.80
2022-11-09T18:03:08.790Z,14.83
2022-11-09T18:05:53.646Z,14.78
2022-11-09T18:08:38.626Z,14.77
2022-11-09T18:11:23.922Z,14.80
2022-11-09T18:14:10.959Z,14.78
2022-11-09T18:16:59.465Z,14.76
2022-11-09T18:19:44.612Z,14.78
2022-11-09T18:22:29.611Z,14.82
2022-11-09T18:25:14.403Z,14.83
2022-11-09T18:27:59.446Z,14.87
2022-11-09T18:30:44.288Z,14.84
2022-11-09T18:33:29.665Z,14.80
2022-11-09T18:36:16.986Z,14.73
2022-11-09T18:39:03.245Z,14.59
2022-11-09T18:41:48.499Z,14.55
2022-11-09T18:44:33.337Z,14.49
2022-11-09T18:47:18.328Z,14.48
2022-11-09T18:50:03.802Z,14.47
2022-11-09T18:52:49.034Z,14.43
2022-11-09T18:55:33.840Z,14.42
2022-11-09T18:58:18.983Z,14.43
2022-11-09T19:01:06.400Z,14.50
2022-11-09T19:03:56.284Z,14.51
2022-11-09T19:06:42.182Z,14.57
2022-11-09T19:09:30.069Z,14.62
2022-11-09T19:12:15.289Z,14.54
2022-11-09T19:15:00.195Z,14.43
2022-11-09T19:17:44.966Z,14.32
2022-11-09T19:20:30.443Z,14.25
2022-11-09T19:23:15.988Z,14.21
2022-11-09T19:26:01.598Z,14.26
2022-11-09T19:28:46.362Z,14.22
2022-11-09T19:31:31.874Z,14.18
2022-11-09T19:34:19.248Z,14.14
2022-11-09T19:37:04.197Z,14.12
2022-11-09T19:39:49.421Z,14.14
2022-11-09T19:42:34.480Z,14.12
2022-11-09T19:45:19.775Z,14.06
2022-11-09T19:48:05.043Z,14.04
2022-11-09T19:50:51.928Z,14.08
2022-11-09T19:53:42.225Z,14.09
2022-11-09T19:56:31.713Z,14.04
2022-11-09T19:59:17.196Z,13.98
2022-11-09T20:02:02.420Z,13.94
2022-11-09T20:04:49.384Z,13.96
2022-11-09T20:07:34.233Z,14.00
2022-11-09T20:10:19.222Z,13.99
2022-11-09T20:13:04.175Z,14.06
2022-11-09T20:15:49.054Z,14.08
2022-11-09T20:18:38.832Z,13.98
2022-11-09T20:21:24.111Z,13.95
2022-11-09T20:24:12.043Z,13.97
2022-11-09T20:26:57.432Z,13.95
2022-11-09T20:29:42.638Z,13.94
2022-11-09T20:32:27.550Z,13.91
2022-11-09T20:35:12.748Z,13.97
2022-11-09T20:37:58.097Z,13.96
2022-11-09T20:40:43.290Z,13.91
2022-11-09T20:43:29.266Z,13.92
2022-11-09T20:46:17.446Z,13.86
2022-11-09T20:49:03.126Z,13.88
2022-11-09T20:51:48.601Z,13.86
2022-11-09T20:54:33.689Z,13.80
2022-11-09T20:57:18.565Z,13.78
2022-11-09T21:00:04.461Z,13.71
2022-11-09T21:02:49.354Z,13.73
2022-11-09T21:05:34.314Z,13.64
2022-11-09T21:08:20.290Z,13.60
2022-11-09T21:11:07.678Z,13.59
2022-11-09T21:13:53.763Z,13.59
2022-11-09T21:16:39.893Z,13.64
2022-11-09T21:19:24.739Z,13.69
2022-11-09T21:22:09.888Z,13.66
2022-11-09T21:25:13.616Z,13.67
2022-11-09T21:28:17.665Z,13.73
2022-11-09T21:31:03.553Z,13.73
2022-11-09T21:33:48.807Z,13.76
2022-11-09T21:36:33.606Z,13.73
2022-11-09T21:39:18.647Z,13.72
2022-11-09T21:42:04.535Z,13.75
2022-11-09T21:44:49.934Z,13.81
2022-11-09T21:47:34.750Z,13.81
2022-11-09T21:50:19.583Z,13.81
2022-11-09T21:53:04.404Z,13.70
2022-11-09T21:55:49.275Z,13.65
2022-11-09T21:58:34.454Z,13.66
2022-11-09T22:01:20.265Z,13.72
2022-11-09T22:04:05.612Z,13.69
2022-11-09T22:06:50.706Z,13.71
2022-11-09T22:10:06.024Z,13.73
2022-11-09T22:13:00.063Z,13.74
2022-11-09T22:16:04.315Z,13.71
2022-11-09T22:19:08.625Z,13.67
2022-11-09T22:21:53.847Z,13.59
2022-11-09T22:24:38.733Z,13.53
2022-11-09T22:27:23.714Z,13.54
2022-11-09T22:30:09.307Z,13.57
2022-11-09T22:32:54.438Z,13.61
2022-11-09T22:35:39.338Z,13.63
2022-11-09T22:38:24.471Z,13.56
2022-11-09T22:41:14.248Z,13.49
2022-11-09T22:44:00.046Z,13.50
2022-11-09T22:46:45.339Z,13.46
2022-11-09T22:49:30.175Z,13.43
2022-11-09T22:52:16.397Z,13.44
2022-11-09T22:55:01.475Z,13.45
2022-11-09T22:57:46.350Z,13.48
2022-11-09T23:00:31.222Z,13.45
2022-11-09T23:03:16.869Z,13.45
2022-11-09T23:06:04.260Z,13.47
2022-11-09T23:08:50.094Z,13.53
2022-11-09T23:11:35.247Z,13.45
2022-11-09T23:14:40.426Z,13.47
2022-11-09T23:17:43.913Z,13.44
2022-11-09T23:20:34.340Z,13.44
2022-11-09T23:23:20.774Z,13.41
2022-11-09T23:26:06.702Z,13.40
2022-11-09T23:28:52.370Z,13.50
2022-11-09T23:31:37.285Z,13.58
2022-11-09T23:34:22.208Z,13.54
2022-11-09T23:37:07.139Z,13.45
2022-11-09T23:39:52.526Z,13.36
2022-11-09T23:42:37.469Z,13.33
2022-11-09T23:45:22.721Z,13.37
2022-11-09T23:48:13.076Z,13.34
2022-11-09T23:50:59.935Z,13.30
2022-11-09T23:53:44.934Z,13.36
2022-11-09T23:56:29.845Z,13.36
2022-11-09T23:59:14.781Z,13.39
